sensor_id;sensor_type;location;lat;lon;timestamp;pressure;altitude;pressure_sealevel;temperature;humidity
19526;BME280;9907;42.676;26.348;2023-04-07T00:01:42;98624.03;;;7.37;50.51
19526;BME280;9907;42.676;26.348;2023-04-07T00:04:08;98621.47;;;7.46;50.58
19526;BME280;9907;42.676;26.348;2023-04-07T00:06:33;98626.78;;;7.46;50.88
19526;BME280;9907;42.676;26.348;2023-04-07T00:08:59;98629.28;;;7.27;50.69
19526;BME280;9907;42.676;26.348;2023-04-07T00:11:24;98620.47;;;7.26;50.46
19526;BME280;9907;42.676;26.348;2023-04-07T00:13:50;98623.72;;;7.30;50.40
19526;BME280;9907;42.676;26.348;2023-04-07T00:16:15;98636.91;;;7.20;50.19
19526;BME280;9907;42.676;26.348;2023-04-07T00:18:41;98628.81;;;7.22;50.53
19526;BME280;9907;42.676;26.348;2023-04-07T00:21:07;98626.88;;;7.24;50.46
19526;BME280;9907;42.676;26.348;2023-04-07T00:23:32;98634.72;;;7.25;50.74
19526;BME280;9907;42.676;26.348;2023-04-07T00:25:58;98628.06;;;7.31;50.01
19526;BME280;9907;42.676;26.348;2023-04-07T00:28:23;98626.84;;;7.35;51.30
19526;BME280;9907;42.676;26.348;2023-04-07T00:30:49;98634.28;;;7.41;50.70
19526;BME280;9907;42.676;26.348;2023-04-07T00:33:14;98628.97;;;7.41;50.43
19526;BME280;9907;42.676;26.348;2023-04-07T00:35:40;98624.88;;;7.37;51.79
19526;BME280;9907;42.676;26.348;2023-04-07T00:38:05;98629.44;;;7.46;51.03
19526;BME280;9907;42.676;26.348;2023-04-07T00:40:31;98634.66;;;7.37;50.65
19526;BME280;9907;42.676;26.348;2023-04-07T00:42:56;98636.09;;;7.41;50.29
19526;BME280;9907;42.676;26.348;2023-04-07T00:45:22;98629.88;;;7.51;50.02
19526;BME280;9907;42.676;26.348;2023-04-07T00:47:47;98635.13;;;7.42;50.54
19526;BME280;9907;42.676;26.348;2023-04-07T00:50:13;98632.59;;;7.40;50.39
19526;BME280;9907;42.676;26.348;2023-04-07T00:52:38;98637.00;;;7.51;49.55
19526;BME280;9907;42.676;26.348;2023-04-07T00:55:04;98636.00;;;7.42;49.88
19526;BME280;9907;42.676;26.348;2023-04-07T00:57:30;98637.91;;;7.40;50.65
19526;BME280;9907;42.676;26.348;2023-04-07T00:59:56;98643.00;;;7.32;51.43
19526;BME280;9907;42.676;26.348;2023-04-07T01:02:34;98635.28;;;7.29;51.76
19526;BME280;9907;42.676;26.348;2023-04-07T01:08:20;98637.88;;;7.51;50.32
19526;BME280;9907;42.676;26.348;2023-04-07T01:11:07;98629.19;;;7.49;49.96
19526;BME280;9907;42.676;26.348;2023-04-07T01:13:41;98629.69;;;7.43;50.50
19526;BME280;9907;42.676;26.348;2023-04-07T01:16:11;98635.94;;;7.53;49.48
19526;BME280;9907;42.676;26.348;2023-04-07T01:18:38;98642.56;;;7.27;51.31
19526;BME280;9907;42.676;26.348;2023-04-07T01:21:14;98630.84;;;7.29;51.10
19526;BME280;9907;42.676;26.348;2023-04-07T01:26:38;98639.44;;;7.54;49.52
19526;BME280;9907;42.676;26.348;2023-04-07T01:31:53;98640.25;;;7.54;50.69
19526;BME280;9907;42.676;26.348;2023-04-07T01:34:19;98643.97;;;7.42;51.15
19526;BME280;9907;42.676;26.348;2023-04-07T01:36:48;98643.19;;;7.19;51.58
19526;BME280;9907;42.676;26.348;2023-04-07T01:39:15;98642.59;;;7.16;50.63
19526;BME280;9907;42.676;26.348;2023-04-07T01:41:42;98648.03;;;7.14;50.80
19526;BME280;9907;42.676;26.348;2023-04-07T01:44:09;98644.06;;;7.09;50.77
19526;BME280;9907;42.676;26.348;2023-04-07T01:46:35;98642.13;;;7.11;50.47
19526;BME280;9907;42.676;26.348;2023-04-07T01:49:02;98647.31;;;7.12;50.58
19526;BME280;9907;42.676;26.348;2023-04-07T01:51:29;98644.34;;;7.06;50.75
19526;BME280;9907;42.676;26.348;2023-04-07T01:53:55;98639.09;;;7.15;50.84
19526;BME280;9907;42.676;26.348;2023-04-07T01:56:21;98639.34;;;7.12;51.03
19526;BME280;9907;42.676;26.348;2023-04-07T01:58:46;98642.28;;;7.09;51.24
19526;BME280;9907;42.676;26.348;2023-04-07T02:01:13;98638.91;;;7.28;50.20
19526;BME280;9907;42.676;26.348;2023-04-07T02:06:19;98644.34;;;7.06;51.40
19526;BME280;9907;42.676;26.348;2023-04-07T02:08:54;98650.84;;;7.02;51.82
19526;BME280;9907;42.676;26.348;2023-04-07T02:11:24;98648.94;;;7.24;51.31
19526;BME280;9907;42.676;26.348;2023-04-07T02:13:52;98643.47;;;7.37;50.14
19526;BME280;9907;42.676;26.348;2023-04-07T02:16:19;98648.72;;;7.27;51.01
19526;BME280;9907;42.676;26.348;2023-04-07T02:18:45;98650.75;;;7.35;50.52
19526;BME280;9907;42.676;26.348;2023-04-07T02:21:13;98653.16;;;7.38;49.61
19526;BME280;9907;42.676;26.348;2023-04-07T02:23:40;98653.59;;;7.43;49.35
19526;BME280;9907;42.676;26.348;2023-04-07T02:26:05;98655.38;;;7.22;51.13
19526;BME280;9907;42.676;26.348;2023-04-07T02:28:31;98659.00;;;7.21;50.49
19526;BME280;9907;42.676;26.348;2023-04-07T02:30:56;98655.56;;;7.41;49.90
19526;BME280;9907;42.676;26.348;2023-04-07T02:33:21;98658.41;;;7.17;50.46
19526;BME280;9907;42.676;26.348;2023-04-07T02:35:47;98664.06;;;7.24;49.90
19526;BME280;9907;42.676;26.348;2023-04-07T02:38:12;98660.56;;;7.23;50.21
19526;BME280;9907;42.676;26.348;2023-04-07T02:40:38;98667.19;;;7.29;50.02
19526;BME280;9907;42.676;26.348;2023-04-07T02:43:03;98670.81;;;7.17;50.56
19526;BME280;9907;42.676;26.348;2023-04-07T02:45:30;98669.13;;;7.27;49.13
19526;BME280;9907;42.676;26.348;2023-04-07T02:47:55;98673.00;;;7.23;50.07
19526;BME280;9907;42.676;26.348;2023-04-07T02:50:21;98678.91;;;7.26;50.32
19526;BME280;9907;42.676;26.348;2023-04-07T02:52:46;98681.88;;;7.44;49.81
19526;BME280;9907;42.676;26.348;2023-04-07T02:55:12;98685.59;;;7.53;48.62
19526;BME280;9907;42.676;26.348;2023-04-07T02:57:37;98673.25;;;7.52;48.75
19526;BME280;9907;42.676;26.348;2023-04-07T03:00:03;98678.03;;;7.37;49.06
19526;BME280;9907;42.676;26.348;2023-04-07T03:02:29;98678.13;;;7.35;49.72
19526;BME280;9907;42.676;26.348;2023-04-07T03:04:54;98681.88;;;7.44;48.54
19526;BME280;9907;42.676;26.348;2023-04-07T03:07:20;98682.00;;;7.43;49.49
19526;BME280;9907;42.676;26.348;2023-04-07T03:09:45;98683.44;;;7.35;48.75
19526;BME280;9907;42.676;26.348;2023-04-07T03:12:11;98677.81;;;7.29;50.30
19526;BME280;9907;42.676;26.348;2023-04-07T03:14:36;98681.19;;;7.31;48.94
19526;BME280;9907;42.676;26.348;2023-04-07T03:17:03;98687.69;;;7.38;48.33
19526;BME280;9907;42.676;26.348;2023-04-07T03:19:28;98685.31;;;7.24;50.00
19526;BME280;9907;42.676;26.348;2023-04-07T03:21:54;98700.81;;;7.08;50.98
19526;BME280;9907;42.676;26.348;2023-04-07T03:24:19;98689.22;;;7.09;51.36
19526;BME280;9907;42.676;26.348;2023-04-07T03:26:45;98689.72;;;6.92;50.53
19526;BME280;9907;42.676;26.348;2023-04-07T03:29:11;98692.00;;;6.96;50.82
19526;BME280;9907;42.676;26.348;2023-04-07T03:31:36;98691.16;;;6.96;49.46
19526;BME280;9907;42.676;26.348;2023-04-07T03:34:03;98688.03;;;7.02;49.01
19526;BME280;9907;42.676;26.348;2023-04-07T03:36:28;98697.56;;;7.04;49.17
19526;BME280;9907;42.676;26.348;2023-04-07T03:38:56;98691.75;;;6.99;49.62
19526;BME280;9907;42.676;26.348;2023-04-07T03:41:21;98694.78;;;7.06;49.43
19526;BME280;9907;42.676;26.348;2023-04-07T03:43:47;98693.03;;;7.27;48.57
19526;BME280;9907;42.676;26.348;2023-04-07T03:46:12;98699.03;;;7.40;48.08
19526;BME280;9907;42.676;26.348;2023-04-07T03:48:37;98702.91;;;7.36;48.19
19526;BME280;9907;42.676;26.348;2023-04-07T03:51:03;98699.94;;;7.18;49.74
19526;BME280;9907;42.676;26.348;2023-04-07T03:53:28;98699.22;;;7.16;50.61
19526;BME280;9907;42.676;26.348;2023-04-07T03:55:54;98700.22;;;7.04;50.77
19526;BME280;9907;42.676;26.348;2023-04-07T03:58:19;98696.47;;;7.07;49.99
19526;BME280;9907;42.676;26.348;2023-04-07T04:00:45;98705.19;;;6.98;51.34
19526;BME280;9907;42.676;26.348;2023-04-07T04:03:10;98698.78;;;7.00;49.94
19526;BME280;9907;42.676;26.348;2023-04-07T04:05:36;98702.13;;;7.02;49.12
19526;BME280;9907;42.676;26.348;2023-04-07T04:08:01;98715.03;;;7.07;50.11
19526;BME280;9907;42.676;26.348;2023-04-07T04:10:27;98712.66;;;6.93;49.73
19526;BME280;9907;42.676;26.348;2023-04-07T04:12:52;98707.09;;;6.96;50.78
19526;BME280;9907;42.676;26.348;2023-04-07T04:15:18;98719.91;;;6.91;50.55
19526;BME280;9907;42.676;26.348;2023-04-07T04:17:43;98712.41;;;6.96;50.06
19526;BME280;9907;42.676;26.348;2023-04-07T04:20:09;98719.28;;;7.09;48.82
19526;BME280;9907;42.676;26.348;2023-04-07T04:22:34;98720.97;;;6.99;49.57
19526;BME280;9907;42.676;26.348;2023-04-07T04:25:00;98729.53;;;7.03;49.79
19526;BME280;9907;42.676;26.348;2023-04-07T04:27:26;98725.91;;;7.04;48.97
19526;BME280;9907;42.676;26.348;2023-04-07T04:29:52;98729.78;;;7.00;48.87
19526;BME280;9907;42.676;26.348;2023-04-07T04:32:18;98731.47;;;7.01;49.07
19526;BME280;9907;42.676;26.348;2023-04-07T04:34:43;98729.53;;;7.14;49.51
19526;BME280;9907;42.676;26.348;2023-04-07T04:37:09;98733.88;;;7.15;47.65
19526;BME280;9907;42.676;26.348;2023-04-07T04:39:35;98731.09;;;7.16;49.41
19526;BME280;9907;42.676;26.348;2023-04-07T04:42:01;98726.50;;;7.18;48.43
19526;BME280;9907;42.676;26.348;2023-04-07T04:44:28;98732.94;;;7.05;49.14
19526;BME280;9907;42.676;26.348;2023-04-07T04:46:54;98740.16;;;7.03;50.04
19526;BME280;9907;42.676;26.348;2023-04-07T04:49:19;98745.25;;;7.06;49.59
19526;BME280;9907;42.676;26.348;2023-04-07T04:51:45;98748.13;;;7.14;49.56
19526;BME280;9907;42.676;26.348;2023-04-07T04:54:10;98755.97;;;7.15;48.70
19526;BME280;9907;42.676;26.348;2023-04-07T04:56:36;98758.47;;;7.17;48.93
19526;BME280;9907;42.676;26.348;2023-04-07T04:59:02;98754.41;;;7.13;48.69
19526;BME280;9907;42.676;26.348;2023-04-07T05:01:28;98761.28;;;7.15;49.24
19526;BME280;9907;42.676;26.348;2023-04-07T05:03:53;98749.56;;;7.18;49.24
19526;BME280;9907;42.676;26.348;2023-04-07T05:06:19;98759.81;;;7.22;48.12
19526;BME280;9907;42.676;26.348;2023-04-07T05:08:45;98760.78;;;7.21;48.83
19526;BME280;9907;42.676;26.348;2023-04-07T05:11:11;98757.06;;;7.24;48.81
19526;BME280;9907;42.676;26.348;2023-04-07T05:13:39;98769.25;;;7.26;49.21
19526;BME280;9907;42.676;26.348;2023-04-07T05:16:05;98768.28;;;7.27;48.09
19526;BME280;9907;42.676;26.348;2023-04-07T05:18:31;98771.03;;;7.26;48.17
19526;BME280;9907;42.676;26.348;2023-04-07T05:20:56;98780.72;;;7.27;48.83
19526;BME280;9907;42.676;26.348;2023-04-07T05:23:22;98788.09;;;7.23;48.35
19526;BME280;9907;42.676;26.348;2023-04-07T05:25:47;98779.53;;;7.20;49.61
19526;BME280;9907;42.676;26.348;2023-04-07T05:28:13;98795.56;;;7.07;49.60
19526;BME280;9907;42.676;26.348;2023-04-07T05:30:38;98797.03;;;7.00;50.66
19526;BME280;9907;42.676;26.348;2023-04-07T05:33:04;98801.47;;;7.11;52.17
19526;BME280;9907;42.676;26.348;2023-04-07T05:35:29;98797.38;;;7.07;53.45
19526;BME280;9907;42.676;26.348;2023-04-07T05:37:55;98806.69;;;7.12;53.96
19526;BME280;9907;42.676;26.348;2023-04-07T05:40:21;98806.78;;;7.00;55.30
19526;BME280;9907;42.676;26.348;2023-04-07T05:42:47;98806.09;;;6.87;57.36
19526;BME280;9907;42.676;26.348;2023-04-07T05:45:12;98807.75;;;6.88;60.20
19526;BME280;9907;42.676;26.348;2023-04-07T05:47:39;98807.75;;;6.99;59.05
19526;BME280;9907;42.676;26.348;2023-04-07T05:50:04;98811.25;;;6.88;61.20
19526;BME280;9907;42.676;26.348;2023-04-07T05:52:30;98809.31;;;6.68;63.69
19526;BME280;9907;42.676;26.348;2023-04-07T05:54:56;98821.03;;;6.88;63.65
19526;BME280;9907;42.676;26.348;2023-04-07T05:57:21;98820.53;;;6.71;64.16
19526;BME280;9907;42.676;26.348;2023-04-07T05:59:47;98823.19;;;6.71;64.33
19526;BME280;9907;42.676;26.348;2023-04-07T06:02:12;98830.44;;;6.80;63.97
19526;BME280;9907;42.676;26.348;2023-04-07T06:04:38;98830.22;;;6.83;64.54
19526;BME280;9907;42.676;26.348;2023-04-07T06:07:04;98825.72;;;6.73;66.02
19526;BME280;9907;42.676;26.348;2023-04-07T06:09:29;98827.31;;;6.75;64.50
19526;BME280;9907;42.676;26.348;2023-04-07T06:11:55;98830.22;;;6.83;64.92
19526;BME280;9907;42.676;26.348;2023-04-07T06:14:20;98821.16;;;6.97;64.45
19526;BME280;9907;42.676;26.348;2023-04-07T06:16:46;98817.78;;;6.95;64.64
19526;BME280;9907;42.676;26.348;2023-04-07T06:19:11;98818.63;;;6.96;63.80
19526;BME280;9907;42.676;26.348;2023-04-07T06:21:38;98827.09;;;7.01;64.67
19526;BME280;9907;42.676;26.348;2023-04-07T06:24:04;98829.75;;;7.12;64.28
19526;BME280;9907;42.676;26.348;2023-04-07T06:26:30;98822.97;;;7.08;63.29
19526;BME280;9907;42.676;26.348;2023-04-07T06:28:57;98833.50;;;6.98;63.12
19526;BME280;9907;42.676;26.348;2023-04-07T06:31:22;98834.91;;;6.91;64.66
19526;BME280;9907;42.676;26.348;2023-04-07T06:33:48;98832.50;;;6.99;64.62
19526;BME280;9907;42.676;26.348;2023-04-07T06:36:13;98843.13;;;6.99;62.30
19526;BME280;9907;42.676;26.348;2023-04-07T06:38:39;98838.66;;;7.11;63.40
19526;BME280;9907;42.676;26.348;2023-04-07T06:41:05;98844.47;;;7.16;63.31
19526;BME280;9907;42.676;26.348;2023-04-07T06:43:30;98852.56;;;7.25;61.92
19526;BME280;9907;42.676;26.348;2023-04-07T06:45:56;98845.66;;;7.45;61.88
19526;BME280;9907;42.676;26.348;2023-04-07T06:48:22;98852.06;;;7.54;61.72
19526;BME280;9907;42.676;26.348;2023-04-07T06:50:51;98843.72;;;7.47;61.01
19526;BME280;9907;42.676;26.348;2023-04-07T06:53:16;98850.84;;;7.47;57.41
19526;BME280;9907;42.676;26.348;2023-04-07T06:55:42;98849.53;;;7.52;57.32
19526;BME280;9907;42.676;26.348;2023-04-07T06:58:07;98857.25;;;7.44;58.43
19526;BME280;9907;42.676;26.348;2023-04-07T07:00:33;98859.66;;;7.47;58.59
19526;BME280;9907;42.676;26.348;2023-04-07T07:03:00;98860.06;;;7.43;59.37
19526;BME280;9907;42.676;26.348;2023-04-07T07:05:26;98855.94;;;7.50;58.78
19526;BME280;9907;42.676;26.348;2023-04-07T07:07:51;98864.28;;;7.45;57.73
19526;BME280;9907;42.676;26.348;2023-04-07T07:10:17;98869.25;;;7.39;58.88
19526;BME280;9907;42.676;26.348;2023-04-07T07:12:44;98868.63;;;7.46;58.64
19526;BME280;9907;42.676;26.348;2023-04-07T07:15:10;98868.84;;;7.54;58.62
19526;BME280;9907;42.676;26.348;2023-04-07T07:17:35;98876.44;;;7.59;57.09
19526;BME280;9907;42.676;26.348;2023-04-07T07:20:01;98868.38;;;7.60;58.71
19526;BME280;9907;42.676;26.348;2023-04-07T07:22:27;98882.25;;;7.64;60.48
19526;BME280;9907;42.676;26.348;2023-04-07T07:24:52;98870.88;;;7.62;60.74
19526;BME280;9907;42.676;26.348;2023-04-07T07:27:18;98882.72;;;7.58;59.24
19526;BME280;9907;42.676;26.348;2023-04-07T07:29:43;98890.69;;;7.58;58.39
19526;BME280;9907;42.676;26.348;2023-04-07T07:32:09;98880.91;;;7.58;58.34
19526;BME280;9907;42.676;26.348;2023-04-07T07:34:34;98884.91;;;7.64;59.13
19526;BME280;9907;42.676;26.348;2023-04-07T07:36:59;98903.16;;;7.68;59.64
19526;BME280;9907;42.676;26.348;2023-04-07T07:39:26;98897.25;;;7.65;59.01
19526;BME280;9907;42.676;26.348;2023-04-07T07:41:51;98896.63;;;7.61;59.29
19526;BME280;9907;42.676;26.348;2023-04-07T07:44:17;98898.31;;;7.62;59.21
19526;BME280;9907;42.676;26.348;2023-04-07T07:46:44;98897.63;;;7.60;59.94
19526;BME280;9907;42.676;26.348;2023-04-07T07:49:10;98896.88;;;7.58;59.05
19526;BME280;9907;42.676;26.348;2023-04-07T07:51:35;98905.84;;;7.57;58.78
19526;BME280;9907;42.676;26.348;2023-04-07T07:54:01;98899.28;;;7.61;58.19
19526;BME280;9907;42.676;26.348;2023-04-07T07:56:26;98910.38;;;7.77;59.03
19526;BME280;9907;42.676;26.348;2023-04-07T07:58:52;98909.88;;;7.83;58.98
19526;BME280;9907;42.676;26.348;2023-04-07T08:01:17;98905.56;;;7.82;58.70
19526;BME280;9907;42.676;26.348;2023-04-07T08:03:43;98907.22;;;7.95;58.69
19526;BME280;9907;42.676;26.348;2023-04-07T08:06:09;98915.09;;;7.85;57.81
19526;BME280;9907;42.676;26.348;2023-04-07T08:08:36;98912.06;;;7.90;57.05
19526;BME280;9907;42.676;26.348;2023-04-07T08:11:01;98913.53;;;7.94;56.68
19526;BME280;9907;42.676;26.348;2023-04-07T08:13:27;98918.59;;;7.97;56.38
19526;BME280;9907;42.676;26.348;2023-04-07T08:15:54;98920.44;;;8.17;56.61
19526;BME280;9907;42.676;26.348;2023-04-07T08:18:19;98921.91;;;8.21;55.74
19526;BME280;9907;42.676;26.348;2023-04-07T08:20:45;98919.38;;;8.30;54.81
19526;BME280;9907;42.676;26.348;2023-04-07T08:23:11;98919.72;;;8.37;54.69
19526;BME280;9907;42.676;26.348;2023-04-07T08:25:37;98914.59;;;8.45;54.75
19526;BME280;9907;42.676;26.348;2023-04-07T08:28:04;98921.06;;;8.63;54.83
19526;BME280;9907;42.676;26.348;2023-04-07T08:30:30;98924.38;;;8.76;54.00
19526;BME280;9907;42.676;26.348;2023-04-07T08:32:55;98919.91;;;8.77;53.19
19526;BME280;9907;42.676;26.348;2023-04-07T08:35:21;98916.31;;;8.88;53.46
19526;BME280;9907;42.676;26.348;2023-04-07T08:37:47;98915.34;;;9.09;52.15
19526;BME280;9907;42.676;26.348;2023-04-07T08:40:13;98919.59;;;9.12;51.87
19526;BME280;9907;42.676;26.348;2023-04-07T08:42:42;98908.41;;;9.48;50.68
19526;BME280;9907;42.676;26.348;2023-04-07T08:45:08;98911.97;;;9.58;50.40
19526;BME280;9907;42.676;26.348;2023-04-07T08:47:36;98915.25;;;9.71;50.22
19526;BME280;9907;42.676;26.348;2023-04-07T08:50:07;98917.00;;;9.52;49.72
19526;BME280;9907;42.676;26.348;2023-04-07T08:52:54;98917.94;;;9.20;51.08
19526;BME280;9907;42.676;26.348;2023-04-07T08:55:20;98914.31;;;9.21;51.44
19526;BME280;9907;42.676;26.348;2023-04-07T08:57:45;98917.56;;;9.04;51.28
19526;BME280;9907;42.676;26.348;2023-04-07T09:00:12;98920.44;;;9.12;51.60
19526;BME280;9907;42.676;26.348;2023-04-07T09:02:40;98926.47;;;9.14;51.70
19526;BME280;9907;42.676;26.348;2023-04-07T09:05:08;98924.59;;;9.05;52.38
19526;BME280;9907;42.676;26.348;2023-04-07T09:07:35;98932.84;;;9.23;51.88
19526;BME280;9907;42.676;26.348;2023-04-07T09:10:01;98926.59;;;9.13;52.56
19526;BME280;9907;42.676;26.348;2023-04-07T09:12:27;98919.50;;;9.23;52.32
19526;BME280;9907;42.676;26.348;2023-04-07T09:14:54;98930.94;;;9.35;52.11
19526;BME280;9907;42.676;26.348;2023-04-07T09:17:20;98923.06;;;9.63;53.30
19526;BME280;9907;42.676;26.348;2023-04-07T09:30:13;98915.25;;;10.21;49.95
19526;BME280;9907;42.676;26.348;2023-04-07T09:32:41;98920.56;;;10.11;49.96
19526;BME280;9907;42.676;26.348;2023-04-07T09:35:07;98924.03;;;9.93;50.09
19526;BME280;9907;42.676;26.348;2023-04-07T09:37:33;98918.53;;;9.94;49.77
19526;BME280;9907;42.676;26.348;2023-04-07T09:39:59;98913.94;;;10.06;49.53
19526;BME280;9907;42.676;26.348;2023-04-07T09:42:26;98925.31;;;10.08;50.48
19526;BME280;9907;42.676;26.348;2023-04-07T09:44:55;98923.06;;;10.03;50.67
19526;BME280;9907;42.676;26.348;2023-04-07T09:47:28;98918.91;;;10.20;50.36
19526;BME280;9907;42.676;26.348;2023-04-07T09:49:54;98919.34;;;10.25;50.13
19526;BME280;9907;42.676;26.348;2023-04-07T09:52:52;98921.41;;;10.12;50.30
19526;BME280;9907;42.676;26.348;2023-04-07T09:55:22;98917.66;;;10.24;51.29
19526;BME280;9907;42.676;26.348;2023-04-07T09:57:49;98930.66;;;10.08;51.13
19526;BME280;9907;42.676;26.348;2023-04-07T10:00:15;98921.38;;;10.02;51.25
19526;BME280;9907;42.676;26.348;2023-04-07T10:02:42;98917.84;;;10.02;50.83
19526;BME280;9907;42.676;26.348;2023-04-07T10:05:09;98915.75;;;10.05;51.06
19526;BME280;9907;42.676;26.348;2023-04-07T10:07:34;98919.72;;;10.11;51.37
19526;BME280;9907;42.676;26.348;2023-04-07T10:10:00;98918.97;;;9.90;51.44
19526;BME280;9907;42.676;26.348;2023-04-07T10:12:26;98910.13;;;9.99;52.34
19526;BME280;9907;42.676;26.348;2023-04-07T10:14:53;98914.38;;;10.01;52.09
19526;BME280;9907;42.676;26.348;2023-04-07T10:17:19;98909.03;;;10.11;52.04
19526;BME280;9907;42.676;26.348;2023-04-07T10:19:47;98908.19;;;10.01;52.16
19526;BME280;9907;42.676;26.348;2023-04-07T10:22:15;98910.84;;;10.10;52.22
19526;BME280;9907;42.676;26.348;2023-04-07T10:24:52;98910.19;;;10.18;52.09
19526;BME280;9907;42.676;26.348;2023-04-07T10:27:23;98910.63;;;10.33;52.05
19526;BME280;9907;42.676;26.348;2023-04-07T10:29:53;98915.00;;;10.43;52.17
19526;BME280;9907;42.676;26.348;2023-04-07T10:32:19;98909.38;;;10.46;51.91
19526;BME280;9907;42.676;26.348;2023-04-07T10:37:18;98912.06;;;10.37;51.76
19526;BME280;9907;42.676;26.348;2023-04-07T10:39:47;98908.00;;;10.52;52.14
19526;BME280;9907;42.676;26.348;2023-04-07T10:47:30;98899.41;;;10.48;53.00
19526;BME280;9907;42.676;26.348;2023-04-07T10:52:39;98914.13;;;11.10;54.17
19526;BME280;9907;42.676;26.348;2023-04-07T10:55:33;98902.91;;;10.68;54.17
19526;BME280;9907;42.676;26.348;2023-04-07T11:00:38;98914.28;;;10.22;55.08
19526;BME280;9907;42.676;26.348;2023-04-07T11:03:11;98920.13;;;10.06;55.23
19526;BME280;9907;42.676;26.348;2023-04-07T11:05:40;98910.38;;;10.45;55.83
19526;BME280;9907;42.676;26.348;2023-04-07T11:08:06;98924.31;;;10.09;55.60
19526;BME280;9907;42.676;26.348;2023-04-07T11:10:33;98911.06;;;10.28;55.77
19526;BME280;9907;42.676;26.348;2023-04-07T11:13:06;98913.19;;;10.34;54.08
19526;BME280;9907;42.676;26.348;2023-04-07T11:15:35;98909.63;;;10.24;53.97
19526;BME280;9907;42.676;26.348;2023-04-07T11:18:17;98911.34;;;10.25;53.95
19526;BME280;9907;42.676;26.348;2023-04-07T11:23:14;98905.72;;;10.47;52.73
19526;BME280;9907;42.676;26.348;2023-04-07T11:25:46;98901.25;;;10.38;53.00
19526;BME280;9907;42.676;26.348;2023-04-07T11:28:12;98908.53;;;10.46;52.95
19526;BME280;9907;42.676;26.348;2023-04-07T11:30:38;98907.56;;;10.47;52.25
19526;BME280;9907;42.676;26.348;2023-04-07T11:33:08;98900.41;;;10.47;51.91
19526;BME280;9907;42.676;26.348;2023-04-07T11:35:46;98903.47;;;10.43;51.30
19526;BME280;9907;42.676;26.348;2023-04-07T11:38:11;98898.56;;;10.57;51.08
19526;BME280;9907;42.676;26.348;2023-04-07T11:40:37;98898.41;;;10.68;49.74
19526;BME280;9907;42.676;26.348;2023-04-07T11:45:43;98897.16;;;10.82;50.31
19526;BME280;9907;42.676;26.348;2023-04-07T11:48:28;98895.41;;;11.10;49.57
19526;BME280;9907;42.676;26.348;2023-04-07T11:50:54;98893.13;;;11.24;48.84
19526;BME280;9907;42.676;26.348;2023-04-07T11:53:35;98889.78;;;11.50;48.86
19526;BME280;9907;42.676;26.348;2023-04-07T11:56:08;98891.00;;;11.75;48.30
19526;BME280;9907;42.676;26.348;2023-04-07T11:58:35;98897.88;;;11.77;48.11
19526;BME280;9907;42.676;26.348;2023-04-07T12:01:02;98891.44;;;11.60;47.05
19526;BME280;9907;42.676;26.348;2023-04-07T12:03:34;98901.81;;;11.36;47.44
19526;BME280;9907;42.676;26.348;2023-04-07T12:06:01;98899.75;;;11.30;47.10
19526;BME280;9907;42.676;26.348;2023-04-07T12:08:40;98908.75;;;11.29;47.21
19526;BME280;9907;42.676;26.348;2023-04-07T12:11:06;98905.81;;;11.13;47.78
19526;BME280;9907;42.676;26.348;2023-04-07T12:13:34;98903.97;;;11.13;47.43
19526;BME280;9907;42.676;26.348;2023-04-07T12:16:00;98904.53;;;11.17;47.61
19526;BME280;9907;42.676;26.348;2023-04-07T12:18:27;98910.16;;;11.23;47.34
19526;BME280;9907;42.676;26.348;2023-04-07T12:20:54;98912.69;;;11.25;47.02
19526;BME280;9907;42.676;26.348;2023-04-07T12:23:21;98920.75;;;11.15;46.72
19526;BME280;9907;42.676;26.348;2023-04-07T12:25:46;98919.47;;;11.19;46.76
19526;BME280;9907;42.676;26.348;2023-04-07T12:28:12;98910.19;;;11.14;46.33
19526;BME280;9907;42.676;26.348;2023-04-07T12:30:37;98914.84;;;11.12;46.74
19526;BME280;9907;42.676;26.348;2023-04-07T12:33:03;98908.19;;;11.26;46.92
19526;BME280;9907;42.676;26.348;2023-04-07T12:35:29;98919.91;;;11.15;46.50
19526;BME280;9907;42.676;26.348;2023-04-07T12:37:55;98902.84;;;11.16;47.81
19526;BME280;9907;42.676;26.348;2023-04-07T12:40:22;98907.03;;;11.28;47.59
19526;BME280;9907;42.676;26.348;2023-04-07T12:42:47;98907.88;;;11.29;47.30
19526;BME280;9907;42.676;26.348;2023-04-07T12:45:13;98902.50;;;11.38;46.87
19526;BME280;9907;42.676;26.348;2023-04-07T12:47:38;98909.25;;;11.42;46.65
19526;BME280;9907;42.676;26.348;2023-04-07T12:50:04;98893.63;;;11.47;46.82
19526;BME280;9907;42.676;26.348;2023-04-07T12:52:30;98899.09;;;11.46;46.23
19526;BME280;9907;42.676;26.348;2023-04-07T12:54:56;98897.13;;;11.48;46.19
19526;BME280;9907;42.676;26.348;2023-04-07T12:57:22;98898.56;;;11.42;46.54
19526;BME280;9907;42.676;26.348;2023-04-07T12:59:48;98898.91;;;11.30;46.55
19526;BME280;9907;42.676;26.348;2023-04-07T13:02:14;98901.16;;;11.24;46.18
19526;BME280;9907;42.676;26.348;2023-04-07T13:04:42;98901.41;;;11.31;46.08
19526;BME280;9907;42.676;26.348;2023-04-07T13:07:13;98901.88;;;11.17;46.58
19526;BME280;9907;42.676;26.348;2023-04-07T13:09:39;98900.75;;;11.19;46.33
19526;BME280;9907;42.676;26.348;2023-04-07T13:12:11;98900.84;;;11.28;47.45
19526;BME280;9907;42.676;26.348;2023-04-07T13:14:40;98908.19;;;11.16;47.37
19526;BME280;9907;42.676;26.348;2023-04-07T13:17:07;98902.41;;;11.20;46.70
19526;BME280;9907;42.676;26.348;2023-04-07T13:19:33;98903.66;;;11.36;46.61
19526;BME280;9907;42.676;26.348;2023-04-07T13:21:59;98896.59;;;11.35;46.56
19526;BME280;9907;42.676;26.348;2023-04-07T13:24:24;98889.78;;;11.59;46.40
19526;BME280;9907;42.676;26.348;2023-04-07T13:26:51;98895.38;;;11.29;46.69
19526;BME280;9907;42.676;26.348;2023-04-07T13:29:17;98892.69;;;11.29;46.45
19526;BME280;9907;42.676;26.348;2023-04-07T13:31:45;98898.63;;;11.23;47.31
19526;BME280;9907;42.676;26.348;2023-04-07T13:34:11;98899.19;;;11.27;48.17
19526;BME280;9907;42.676;26.348;2023-04-07T13:36:38;98891.03;;;11.18;46.66
19526;BME280;9907;42.676;26.348;2023-04-07T13:39:03;98893.28;;;11.23;47.17
19526;BME280;9907;42.676;26.348;2023-04-07T13:41:29;98896.66;;;11.25;47.15
19526;BME280;9907;42.676;26.348;2023-04-07T13:43:54;98890.41;;;11.44;46.53
19526;BME280;9907;42.676;26.348;2023-04-07T13:46:20;98890.22;;;11.55;47.43